< Typhoon 202202 2022 Season Typhoon 202204 >
Typhoon 202203 (CHABA)
General InformationTrack Information on Google MapsDetailed Wind InformationForecast History on Google MapsAccess Analytics MapList of All Images || NewsDisaster Info.WeblogTrackbackTyphoon FrontTwiphoonTyphoon Now!Typhoon ImaginationJMA Disaster Info. XMLResourceGoogle EarthGE AnimationAtom FeedGeoJSON
Detalied Best Track (Time Zone = UTC)
Year Month Day Hour Lat. Long. Pressure (hPa) Wind (kt) Class Image Chart
2022 6 29 00 14.8 116.2 1000 30 2 Image Chart
2022 6 29 03 15.0 116.2 1000 30 2 Image Chart
2022 6 29 06 15.5 116.3 1000 30 2 Image Chart
2022 6 29 09 16.1 116.1 998 30 2 Image Chart
2022 6 29 12 16.1 116.0 998 30 2 Image Chart
2022 6 29 15 16.2 115.9 998 30 2 Image Chart
2022 6 29 18 15.8 114.9 998 30 2 Image Chart
2022 6 29 21 15.5 114.3 998 30 2 Image Chart
2022 6 30 00 15.7 114.1 994 35 3 Image Chart
2022 6 30 03 15.9 114.3 992 35 3 Image Chart
2022 6 30 06 16.1 115.0 990 40 3 Image Chart
2022 6 30 09 16.4 115.4 990 40 3 Image Chart
2022 6 30 12 17.0 115.2 990 45 3 Image Chart
2022 6 30 15 17.1 114.8 990 45 3 Image Chart
2022 6 30 18 17.5 114.4 985 50 4 Image Chart
2022 6 30 21 17.9 114.2 985 50 4 Image Chart
2022 7 1 00 18.5 114.1 980 55 4 Image Chart
2022 7 1 03 18.6 113.8 980 55 4 Image Chart
2022 7 1 06 18.9 113.0 980 55 4 Image Chart
2022 7 1 09 19.3 112.9 980 55 4 Image Chart
2022 7 1 12 19.6 112.7 975 60 4 Image Chart
2022 7 1 15 19.7 112.6 975 60 4 Image Chart
2022 7 1 18 20.2 112.0 975 60 4 Image Chart
2022 7 1 21 20.5 111.9 975 60 4 Image Chart
2022 7 2 00 20.6 111.7 965 70 5 Image Chart
2022 7 2 03 20.8 111.4 965 70 5 Image Chart
2022 7 2 06 21.2 111.3 965 70 5 Image Chart
2022 7 2 09 21.7 110.9 970 65 5 Image Chart
2022 7 2 12 21.9 110.8 980 55 4 Image Chart
2022 7 2 15 22.3 110.5 985 50 4 Image Chart
2022 7 2 18 22.6 110.4 985 45 3 Image Chart
2022 7 2 21 23.1 110.3 985 45 3 Image Chart
2022 7 3 00 23.6 110.7 990 35 3 Image Chart
2022 7 3 03 24.1 110.6 992 35 3 Image Chart
2022 7 3 06 24.0 111.0 994 0 2 Image Chart
Japan Meteorological Agency Best Track Data | Correction Date : 2022-07-03
< Typhoon 202202 2022 Season Typhoon 202204 >

Help